createdAt,value
2023-01-08T00:01:29.479Z,90.39
2023-01-08T00:03:57.472Z,90.69
2023-01-08T00:06:25.500Z,90.62
2023-01-08T00:08:53.486Z,90.23
2023-01-08T00:11:21.440Z,90.34
2023-01-08T00:13:49.325Z,90.21
2023-01-08T00:16:18.933Z,90.35
2023-01-08T00:18:48.174Z,90.36
2023-01-08T00:21:16.127Z,90.24
2023-01-08T00:23:44.057Z,90.43
2023-01-08T00:26:13.576Z,90.55
2023-01-08T00:28:42.032Z,90.30
2023-01-08T00:31:12.018Z,90.27
2023-01-08T00:33:41.337Z,90.07
2023-01-08T00:36:12.601Z,90.73
2023-01-08T00:38:40.753Z,90.91
2023-01-08T00:41:09.577Z,91.11
2023-01-08T00:43:37.479Z,91.34
2023-01-08T00:46:05.735Z,90.96
2023-01-08T00:48:37.340Z,90.95
2023-01-08T00:51:07.593Z,90.93
2023-01-08T00:53:38.172Z,91.12
2023-01-08T00:56:08.973Z,91.20
2023-01-08T00:58:37.377Z,91.14
2023-01-08T01:01:14.302Z,90.82
2023-01-08T01:03:42.739Z,90.66
2023-01-08T01:06:12.045Z,90.56
2023-01-08T01:08:40.032Z,90.47
2023-01-08T01:11:17.520Z,90.60
2023-01-08T01:13:45.488Z,90.42
2023-01-08T01:16:13.388Z,90.31
2023-01-08T01:18:41.511Z,90.37
2023-01-08T01:21:11.615Z,89.95
2023-01-08T01:23:41.139Z,90.07
2023-01-08T01:26:20.192Z,90.65
2023-01-08T01:28:50.592Z,90.70
2023-01-08T01:31:19.726Z,90.57
2023-01-08T01:33:47.997Z,90.87
2023-01-08T01:36:17.762Z,90.97
2023-01-08T01:38:47.072Z,91.19
2023-01-08T01:41:28.457Z,91.51
2023-01-08T01:43:59.124Z,91.35
2023-01-08T01:46:39.436Z,91.06
2023-01-08T01:49:15.566Z,91.42
2023-01-08T01:51:49.122Z,91.38
2023-01-08T01:54:18.361Z,91.96
2023-01-08T01:56:46.873Z,91.64
2023-01-08T01:59:16.201Z,91.72
2023-01-08T02:01:44.313Z,91.19
2023-01-08T02:04:13.612Z,90.93
2023-01-08T02:07:00.424Z,91.03
2023-01-08T02:09:54.463Z,90.42
2023-01-08T02:12:30.526Z,90.64
2023-01-08T02:15:24.751Z,91.22
2023-01-08T02:18:07.777Z,91.41
2023-01-08T02:20:39.677Z,91.38
2023-01-08T02:23:23.513Z,91.43
2023-01-08T02:26:06.724Z,91.96
2023-01-08T02:28:44.113Z,92.13
2023-01-08T02:31:13.368Z,92.74
2023-01-08T02:33:41.489Z,92.47
2023-01-08T02:36:24.566Z,92.62
2023-01-08T02:39:11.361Z,92.18
2023-01-08T02:42:01.290Z,92.27
2023-01-08T02:44:54.237Z,92.59
2023-01-08T02:47:29.425Z,92.76
2023-01-08T02:50:33.698Z,92.27
2023-01-08T02:53:10.528Z,92.53
2023-01-08T02:55:41.281Z,92.38
2023-01-08T02:58:09.226Z,92.35
2023-01-08T03:00:39.823Z,92.18
2023-01-08T03:03:16.214Z,92.37
2023-01-08T03:05:48.650Z,92.49
2023-01-08T03:08:18.651Z,92.41
2023-01-08T03:10:55.682Z,92.24
2023-01-08T03:13:41.990Z,92.11
2023-01-08T03:16:15.273Z,92.80
2023-01-08T03:18:51.776Z,92.59
2023-01-08T03:21:22.357Z,92.45
2023-01-08T03:23:51.115Z,92.31
2023-01-08T03:26:24.765Z,92.28
2023-01-08T03:28:55.684Z,92.56
2023-01-08T03:31:27.324Z,92.91
2023-01-08T03:33:56.475Z,93.02
2023-01-08T03:36:28.629Z,92.81
2023-01-08T03:39:05.560Z,92.73
2023-01-08T03:41:36.401Z,92.83
2023-01-08T03:44:04.683Z,92.22
2023-01-08T03:46:37.386Z,92.31
2023-01-08T03:49:07.925Z,92.56
2023-01-08T03:51:43.593Z,92.53
2023-01-08T03:54:18.326Z,92.39
2023-01-08T03:56:46.811Z,92.32
2023-01-08T03:59:15.962Z,92.40
2023-01-08T04:01:44.549Z,92.33
2023-01-08T04:04:12.652Z,91.89
2023-01-08T04:06:40.626Z,91.46
2023-01-08T04:09:08.972Z,91.48
2023-01-08T04:11:36.867Z,91.61
2023-01-08T04:14:04.848Z,91.50
2023-01-08T04:16:34.751Z,91.50
2023-01-08T04:19:02.769Z,91.75
2023-01-08T04:21:30.558Z,91.81
2023-01-08T04:23:58.443Z,91.46
2023-01-08T04:26:26.251Z,91.51
2023-01-08T04:28:54.233Z,92.00
2023-01-08T04:31:22.195Z,92.28
2023-01-08T04:33:50.185Z,92.34
2023-01-08T04:36:18.005Z,91.97
2023-01-08T04:38:46.232Z,91.99
2023-01-08T04:41:14.109Z,92.52
2023-01-08T04:43:42.015Z,92.82
2023-01-08T04:46:10.238Z,92.64
2023-01-08T04:48:38.327Z,92.83
2023-01-08T04:51:06.350Z,92.61
2023-01-08T04:53:36.718Z,92.71
2023-01-08T04:56:06.980Z,92.79
2023-01-08T04:58:35.941Z,92.48
2023-01-08T05:01:18.813Z,92.35
2023-01-08T05:03:47.241Z,92.51
2023-01-08T05:06:15.354Z,92.57
2023-01-08T05:08:43.276Z,92.05
2023-01-08T05:11:11.145Z,91.77
2023-01-08T05:13:39.122Z,92.26
2023-01-08T05:16:07.363Z,92.46
2023-01-08T05:18:35.527Z,92.62
2023-01-08T05:21:05.200Z,92.78
2023-01-08T05:23:33.934Z,92.89
2023-01-08T05:26:04.844Z,93.07
2023-01-08T05:28:34.131Z,93.16
2023-01-08T05:31:02.107Z,93.48
2023-01-08T05:33:30.936Z,93.69
2023-01-08T05:35:58.873Z,93.51
2023-01-08T05:38:26.892Z,93.67
2023-01-08T05:40:54.860Z,93.21
2023-01-08T05:43:22.732Z,93.13
2023-01-08T05:45:50.696Z,93.31
2023-01-08T05:48:18.611Z,93.16
2023-01-08T05:50:49.312Z,92.99
2023-01-08T05:53:17.291Z,92.78
2023-01-08T05:55:45.176Z,92.77
2023-01-08T05:58:13.205Z,93.08
2023-01-08T06:00:41.017Z,93.05
2023-01-08T06:03:08.880Z,93.17
2023-01-08T06:05:36.822Z,93.20
2023-01-08T06:08:07.127Z,92.64
2023-01-08T06:10:38.561Z,92.48
2023-01-08T06:13:08.512Z,92.47
2023-01-08T06:15:39.647Z,92.84
2023-01-08T06:18:07.955Z,92.97
2023-01-08T06:20:35.781Z,92.98
2023-01-08T06:23:03.739Z,93.32
2023-01-08T06:25:32.401Z,93.18
2023-01-08T06:28:00.346Z,92.83
2023-01-08T06:30:28.359Z,92.62
2023-01-08T06:33:00.720Z,92.50
2023-01-08T06:35:28.908Z,92.35
2023-01-08T06:37:56.990Z,92.49
2023-01-08T06:40:24.961Z,92.80
2023-01-08T06:42:52.883Z,92.42
2023-01-08T06:45:20.931Z,92.35
2023-01-08T06:47:48.743Z,92.80
2023-01-08T06:50:16.615Z,92.79
2023-01-08T06:52:44.480Z,92.31
2023-01-08T06:55:12.242Z,92.84
2023-01-08T06:57:41.665Z,93.44
2023-01-08T07:00:10.120Z,93.34
2023-01-08T07:02:38.209Z,93.35
2023-01-08T07:05:06.478Z,93.29
2023-01-08T07:07:34.374Z,92.60
2023-01-08T07:10:02.221Z,92.52
2023-01-08T07:12:30.067Z,92.77
2023-01-08T07:14:58.040Z,92.84
2023-01-08T07:17:25.877Z,93.09
2023-01-08T07:19:53.830Z,93.01
2023-01-08T07:22:22.911Z,93.12
2023-01-08T07:24:50.873Z,93.33
2023-01-08T07:27:19.313Z,93.79
2023-01-08T07:29:47.143Z,93.91
2023-01-08T07:32:15.039Z,93.36
2023-01-08T07:34:42.865Z,93.50
2023-01-08T07:37:10.721Z,94.02
2023-01-08T07:39:38.587Z,93.68
2023-01-08T07:42:06.568Z,93.40
2023-01-08T07:44:34.520Z,93.28
2023-01-08T07:47:02.467Z,93.16
2023-01-08T07:49:30.257Z,93.00
2023-01-08T07:51:58.183Z,93.16
2023-01-08T07:54:26.006Z,93.15
2023-01-08T07:56:56.826Z,93.10
2023-01-08T07:59:24.663Z,93.61
2023-01-08T08:01:52.606Z,93.98
2023-01-08T08:04:20.551Z,94.25
2023-01-08T08:06:48.468Z,93.41
2023-01-08T08:09:16.391Z,93.02
2023-01-08T08:11:44.246Z,93.64
2023-01-08T08:14:12.220Z,93.74
2023-01-08T08:16:40.073Z,93.81
2023-01-08T08:19:07.974Z,93.39
2023-01-08T08:21:35.824Z,93.42
2023-01-08T08:24:04.115Z,93.49
2023-01-08T08:26:31.996Z,93.66
2023-01-08T08:28:59.943Z,93.61
2023-01-08T08:31:27.836Z,94.15
2023-01-08T08:33:55.922Z,94.55
2023-01-08T08:36:29.145Z,94.41
2023-01-08T08:38:57.069Z,93.78
2023-01-08T08:41:24.914Z,93.81
2023-01-08T08:43:52.912Z,93.75
2023-01-08T08:46:20.859Z,93.66
2023-01-08T08:48:48.887Z,93.99
2023-01-08T08:51:16.916Z,94.59
2023-01-08T08:53:44.809Z,94.62
2023-01-08T08:56:13.399Z,94.40
2023-01-08T08:58:45.307Z,94.45
2023-01-08T09:01:13.212Z,94.71
2023-01-08T09:03:41.139Z,94.79
2023-01-08T09:06:15.811Z,94.49
2023-01-08T09:08:44.234Z,94.62
2023-01-08T09:11:14.255Z,94.51
2023-01-08T09:13:42.353Z,93.96
2023-01-08T09:16:10.193Z,94.29
2023-01-08T09:18:38.337Z,94.51
2023-01-08T09:21:07.602Z,94.70
2023-01-08T09:23:35.907Z,94.79
2023-01-08T09:26:05.783Z,94.52
2023-01-08T09:28:33.797Z,94.20
2023-01-08T09:31:03.302Z,94.18
2023-01-08T09:33:32.089Z,94.27
2023-01-08T09:36:00.057Z,93.62
2023-01-08T09:38:29.851Z,93.16
2023-01-08T09:41:09.767Z,93.54
2023-01-08T09:43:41.001Z,93.70
2023-01-08T09:46:13.223Z,93.88
2023-01-08T09:48:42.951Z,94.27
2023-01-08T09:51:14.585Z,93.85
2023-01-08T09:53:44.005Z,93.50
2023-01-08T09:56:17.119Z,93.73
2023-01-08T09:58:51.613Z,93.84
2023-01-08T10:01:32.754Z,93.97
2023-01-08T10:04:21.856Z,94.08
2023-01-08T10:06:55.359Z,93.95
2023-01-08T10:09:31.732Z,93.32
2023-01-08T10:12:05.409Z,93.41
2023-01-08T10:14:39.225Z,93.43
2023-01-08T10:17:47.606Z,93.73
2023-01-08T10:20:19.433Z,93.78
2023-01-08T10:22:49.148Z,93.80
2023-01-08T10:25:20.184Z,93.58
2023-01-08T10:27:51.633Z,93.09
2023-01-08T10:30:29.341Z,93.22
2023-01-08T10:33:03.268Z,93.43
2023-01-08T10:35:42.705Z,92.87
2023-01-08T10:38:33.201Z,92.37
2023-01-08T10:41:05.340Z,92.27
2023-01-08T10:43:41.791Z,92.60
2023-01-08T10:46:22.523Z,92.64
2023-01-08T10:48:53.764Z,92.62
2023-01-08T10:51:24.660Z,93.05
2023-01-08T10:53:55.603Z,93.51
2023-01-08T10:56:23.526Z,93.71
2023-01-08T10:58:52.402Z,93.77
2023-01-08T11:01:30.592Z,93.35
2023-01-08T11:04:05.137Z,92.52
2023-01-08T11:06:36.800Z,92.81
2023-01-08T11:09:28.185Z,93.21
2023-01-08T11:11:56.540Z,93.42
2023-01-08T11:14:28.078Z,93.26
2023-01-08T11:16:57.270Z,92.41
2023-01-08T11:19:32.702Z,92.82
2023-01-08T11:22:21.943Z,93.24
2023-01-08T11:24:52.129Z,93.20
2023-01-08T11:27:35.889Z,93.42
2023-01-08T11:30:12.397Z,93.86
2023-01-08T11:32:48.416Z,93.83
2023-01-08T11:35:33.031Z,93.49
2023-01-08T11:38:02.311Z,92.80
2023-01-08T11:40:57.995Z,92.51
2023-01-08T11:43:58.735Z,92.29
2023-01-08T11:46:26.636Z,92.72
2023-01-08T11:49:00.105Z,93.30
2023-01-08T11:51:38.731Z,93.24
2023-01-08T11:54:21.701Z,92.82
2023-01-08T11:57:31.417Z,92.69
2023-01-08T12:00:25.492Z,92.35
2023-01-08T12:02:58.278Z,92.50
2023-01-08T12:05:48.504Z,92.78
2023-01-08T12:08:19.314Z,92.68
2023-01-08T12:10:50.169Z,92.84
2023-01-08T12:13:24.034Z,92.65
2023-01-08T12:16:10.159Z,92.69
2023-01-08T12:18:48.980Z,93.03
2023-01-08T12:21:19.744Z,92.79
2023-01-08T12:24:12.081Z,92.93
2023-01-08T12:27:06.053Z,92.26
2023-01-08T12:30:11.090Z,91.52
2023-01-08T12:32:46.544Z,91.88
2023-01-08T12:35:22.337Z,92.11
2023-01-08T12:38:05.107Z,92.41
2023-01-08T12:40:39.544Z,93.01
2023-01-08T12:43:40.044Z,93.09
2023-01-08T12:46:14.810Z,93.03
2023-01-08T12:48:46.255Z,93.07
2023-01-08T12:51:31.692Z,93.21
2023-01-08T12:54:05.146Z,92.56
2023-01-08T12:57:12.737Z,92.23
2023-01-08T13:00:06.636Z,92.48
2023-01-08T13:02:38.854Z,93.24
2023-01-08T13:05:13.381Z,92.98
2023-01-08T13:07:47.334Z,92.56
2023-01-08T13:10:41.703Z,92.61
2023-01-08T13:13:28.224Z,92.65
2023-01-08T13:16:14.224Z,92.68
2023-01-08T13:18:57.899Z,92.80
2023-01-08T13:21:37.480Z,93.44
2023-01-08T13:24:36.551Z,94.18
2023-01-08T13:27:19.446Z,94.15
2023-01-08T13:29:52.560Z,93.82
2023-01-08T13:32:24.988Z,94.06
2023-01-08T13:35:31.966Z,94.03
2023-01-08T13:38:12.008Z,93.90
2023-01-08T13:40:47.308Z,93.52
2023-01-08T13:43:41.971Z,93.45
2023-01-08T13:46:20.015Z,93.31
2023-01-08T13:49:05.355Z,93.16
2023-01-08T13:51:42.028Z,92.99
2023-01-08T13:54:13.018Z,92.73
2023-01-08T13:56:43.282Z,92.67
2023-01-08T13:59:38.196Z,92.69
2023-01-08T14:02:25.245Z,93.29
2023-01-08T14:04:54.409Z,93.73
2023-01-08T14:07:23.794Z,93.60
2023-01-08T14:09:52.260Z,93.16
2023-01-08T14:12:23.081Z,92.81
2023-01-08T14:14:54.220Z,93.05
2023-01-08T14:17:29.121Z,93.28
2023-01-08T14:19:57.760Z,93.52
2023-01-08T14:22:34.941Z,93.35
2023-01-08T14:25:06.425Z,93.25
2023-01-08T14:27:35.318Z,93.21
2023-01-08T14:30:16.046Z,93.53
2023-01-08T14:32:45.270Z,93.62
2023-01-08T14:35:23.783Z,93.81
2023-01-08T14:37:51.802Z,93.24
2023-01-08T14:40:31.772Z,92.92
2023-01-08T14:43:07.291Z,93.09
2023-01-08T14:45:38.266Z,93.16
2023-01-08T14:48:29.246Z,93.56
2023-01-08T14:51:04.533Z,93.32
2023-01-08T14:53:34.331Z,93.36
2023-01-08T14:56:03.887Z,93.47
2023-01-08T14:58:38.550Z,93.52
2023-01-08T15:01:14.624Z,93.33
2023-01-08T15:03:45.006Z,93.51
2023-01-08T15:06:27.975Z,93.09
2023-01-08T15:08:56.121Z,93.14
2023-01-08T15:11:26.574Z,92.65
2023-01-08T15:13:55.147Z,92.52
2023-01-08T15:16:29.504Z,92.56
2023-01-08T15:19:05.699Z,92.09
2023-01-08T15:21:35.029Z,92.10
2023-01-08T15:24:05.521Z,92.86
2023-01-08T15:26:33.710Z,93.40
2023-01-08T15:29:07.676Z,93.30
2023-01-08T15:31:35.472Z,93.59
2023-01-08T15:34:03.392Z,93.38
2023-01-08T15:36:31.292Z,93.21
2023-01-08T15:38:59.268Z,93.29
2023-01-08T15:41:57.320Z,93.00
2023-01-08T15:44:26.015Z,92.93
2023-01-08T15:46:54.437Z,93.02
2023-01-08T15:49:22.257Z,93.18
2023-01-08T15:51:52.734Z,93.10
2023-01-08T15:54:24.842Z,92.69
2023-01-08T15:56:52.787Z,92.75
2023-01-08T15:59:20.785Z,93.20
2023-01-08T16:01:48.749Z,93.33
2023-01-08T16:04:16.716Z,93.20
2023-01-08T16:06:44.618Z,93.18
2023-01-08T16:09:12.501Z,93.95
2023-01-08T16:11:40.329Z,94.15
2023-01-08T16:14:08.141Z,94.02
2023-01-08T16:16:36.041Z,94.20
2023-01-08T16:19:03.869Z,94.09
2023-01-08T16:21:31.812Z,94.09
2023-01-08T16:23:59.800Z,94.22
2023-01-08T16:26:27.632Z,93.44
2023-01-08T16:28:55.471Z,93.40
2023-01-08T16:31:23.339Z,93.75
2023-01-08T16:33:51.312Z,94.03
2023-01-08T16:36:19.157Z,94.53
2023-01-08T16:38:48.422Z,94.87
2023-01-08T16:41:16.330Z,95.13
2023-01-08T16:43:45.367Z,95.76
2023-01-08T16:46:14.900Z,95.45
2023-01-08T16:48:43.061Z,95.34
2023-01-08T16:51:11.475Z,95.29
2023-01-08T16:53:39.865Z,95.13
2023-01-08T16:56:09.273Z,95.08
2023-01-08T16:58:37.445Z,94.98
2023-01-08T17:01:11.087Z,95.19
2023-01-08T17:03:39.652Z,94.84
2023-01-08T17:06:09.676Z,94.73
2023-01-08T17:08:40.362Z,94.01
2023-01-08T17:11:14.489Z,93.98
2023-01-08T17:13:42.758Z,94.25
2023-01-08T17:16:13.223Z,94.36
2023-01-08T17:18:41.621Z,93.90
2023-01-08T17:21:11.567Z,94.18
2023-01-08T17:23:40.127Z,94.37
2023-01-08T17:26:11.245Z,94.33
2023-01-08T17:28:40.107Z,94.53
2023-01-08T17:31:10.791Z,94.83
2023-01-08T17:33:39.231Z,94.66
2023-01-08T17:36:16.438Z,94.22
2023-01-08T17:38:46.821Z,94.48
2023-01-08T17:41:34.959Z,94.66
2023-01-08T17:44:06.816Z,94.62
2023-01-08T17:46:36.264Z,94.14
2023-01-08T17:49:04.486Z,93.77
2023-01-08T17:51:33.575Z,93.09
2023-01-08T17:54:01.862Z,92.30
2023-01-08T17:56:29.778Z,92.25
2023-01-08T17:58:57.632Z,92.85
2023-01-08T18:01:26.370Z,93.49
2023-01-08T18:03:54.483Z,93.02
2023-01-08T18:06:22.582Z,92.27
2023-01-08T18:08:50.373Z,92.48
2023-01-08T18:11:18.407Z,93.21
2023-01-08T18:13:46.201Z,93.70
2023-01-08T18:16:14.902Z,94.08
2023-01-08T18:18:42.881Z,94.24
2023-01-08T18:21:10.769Z,93.99
2023-01-08T18:23:38.606Z,93.51
2023-01-08T18:26:08.211Z,93.27
2023-01-08T18:28:36.527Z,93.27
2023-01-08T18:31:09.576Z,93.70
2023-01-08T18:33:38.131Z,93.60
2023-01-08T18:36:09.605Z,93.55
2023-01-08T18:38:38.405Z,93.31
2023-01-08T18:41:06.802Z,93.06
2023-01-08T18:43:35.763Z,93.29
2023-01-08T18:46:06.796Z,93.19
2023-01-08T18:48:35.240Z,93.12
2023-01-08T18:51:05.736Z,93.32
2023-01-08T18:53:33.991Z,93.52
2023-01-08T18:56:02.165Z,93.29
2023-01-08T18:58:30.194Z,93.18
2023-01-08T19:01:04.404Z,93.06
2023-01-08T19:03:32.921Z,93.25
2023-01-08T19:06:00.841Z,93.17
2023-01-08T19:08:28.695Z,93.17
2023-01-08T19:10:56.602Z,93.40
2023-01-08T19:13:24.501Z,93.25
2023-01-08T19:15:52.334Z,93.24
2023-01-08T19:18:22.973Z,93.23
2023-01-08T19:20:50.995Z,93.23
2023-01-08T19:23:19.359Z,93.30
2023-01-08T19:25:47.360Z,93.31
2023-01-08T19:28:15.192Z,92.81
2023-01-08T19:30:54.393Z,92.63
2023-01-08T19:33:22.719Z,92.52
2023-01-08T19:35:51.061Z,92.62
2023-01-08T19:38:20.821Z,92.61
2023-01-08T19:40:48.759Z,92.09
2023-01-08T19:43:35.553Z,91.93
2023-01-08T19:46:07.825Z,92.47
2023-01-08T19:49:30.985Z,92.33
2023-01-08T19:51:58.878Z,92.16
2023-01-08T19:54:26.857Z,92.24
2023-01-08T19:56:55.769Z,92.07
2023-01-08T19:59:24.839Z,91.68
2023-01-08T20:01:53.158Z,91.45
2023-01-08T20:04:25.354Z,91.56
2023-01-08T20:06:53.484Z,91.75
2023-01-08T20:09:21.440Z,92.18
2023-01-08T20:11:49.449Z,92.77
2023-01-08T20:14:18.708Z,93.06
2023-01-08T20:16:47.956Z,93.20
2023-01-08T20:19:16.174Z,93.62
2023-01-08T20:21:44.101Z,93.78
2023-01-08T20:24:15.887Z,93.75
2023-01-08T20:26:45.593Z,93.61
2023-01-08T20:29:15.706Z,93.55
2023-01-08T20:31:44.426Z,93.37
2023-01-08T20:34:15.650Z,93.24
2023-01-08T20:36:47.318Z,93.29
2023-01-08T20:39:18.731Z,93.11
2023-01-08T20:42:00.826Z,92.67
2023-01-08T20:44:33.067Z,92.50
2023-01-08T20:47:02.065Z,92.53
2023-01-08T20:49:30.022Z,92.47
2023-01-08T20:51:59.871Z,92.46
2023-01-08T20:54:36.030Z,92.55
2023-01-08T20:57:07.967Z,92.64
2023-01-08T20:59:36.314Z,92.66
2023-01-08T21:02:04.517Z,92.77
2023-01-08T21:04:32.626Z,92.38
2023-01-08T21:07:00.597Z,92.04
2023-01-08T21:09:28.534Z,91.74
2023-01-08T21:11:56.328Z,91.51
2023-01-08T21:14:24.139Z,91.24
2023-01-08T21:16:52.068Z,90.91
2023-01-08T21:19:20.114Z,91.80
2023-01-08T21:21:48.028Z,92.15
2023-01-08T21:24:15.977Z,92.18
2023-01-08T21:26:45.915Z,92.12
2023-01-08T21:29:13.899Z,92.10
2023-01-08T21:31:42.684Z,91.97
2023-01-08T21:34:11.603Z,92.09
2023-01-08T21:36:39.511Z,92.86
2023-01-08T21:39:07.815Z,93.42
2023-01-08T21:41:54.220Z,93.44
2023-01-08T21:44:43.562Z,93.38
2023-01-08T21:47:16.596Z,93.41
2023-01-08T21:49:46.013Z,93.54
2023-01-08T21:52:32.975Z,93.37
2023-01-08T21:55:01.491Z,92.96
2023-01-08T21:57:29.423Z,92.86
2023-01-08T21:59:57.373Z,93.07
2023-01-08T22:02:25.358Z,92.83
2023-01-08T22:04:56.789Z,92.71
2023-01-08T22:07:25.748Z,92.55
2023-01-08T22:09:54.049Z,92.08
2023-01-08T22:12:23.244Z,92.16
2023-01-08T22:14:55.462Z,93.19
2023-01-08T22:17:25.487Z,93.49
2023-01-08T22:19:53.665Z,93.18
2023-01-08T22:22:22.056Z,93.19
2023-01-08T22:24:52.714Z,93.48
2023-01-08T22:27:21.394Z,93.88
2023-01-08T22:29:49.458Z,93.79
2023-01-08T22:32:17.593Z,93.49
2023-01-08T22:34:45.562Z,93.36
2023-01-08T22:37:13.611Z,93.47
2023-01-08T22:39:41.425Z,93.26
2023-01-08T22:42:09.256Z,92.67
2023-01-08T22:44:37.071Z,92.46
2023-01-08T22:47:06.251Z,93.04
2023-01-08T22:49:34.232Z,93.03
2023-01-08T22:52:02.048Z,92.79
2023-01-08T22:54:30.032Z,92.71
2023-01-08T22:56:57.911Z,92.69
2023-01-08T22:59:25.985Z,93.21
2023-01-08T23:01:53.941Z,93.59
2023-01-08T23:04:22.066Z,93.89
2023-01-08T23:06:49.984Z,93.61
2023-01-08T23:09:18.099Z,93.19
2023-01-08T23:11:46.128Z,92.92
2023-01-08T23:14:16.275Z,93.18
2023-01-08T23:16:44.201Z,93.21
2023-01-08T23:19:12.217Z,92.93
2023-01-08T23:21:40.301Z,92.76
2023-01-08T23:24:12.587Z,92.64
2023-01-08T23:26:41.114Z,92.44
2023-01-08T23:29:10.697Z,92.17
2023-01-08T23:31:39.273Z,92.18
2023-01-08T23:34:07.545Z,92.31
2023-01-08T23:36:36.137Z,92.39
2023-01-08T23:39:04.772Z,92.44
2023-01-08T23:41:35.094Z,92.34
2023-01-08T23:44:06.999Z,92.34
2023-01-08T23:46:35.412Z,92.23
2023-01-08T23:49:05.058Z,92.28
2023-01-08T23:51:33.416Z,91.75
2023-01-08T23:54:02.641Z,91.98
2023-01-08T23:56:31.831Z,92.06
2023-01-08T23:58:59.963Z,91.82
